MHRO

Juan Manuel Galvez International Airport

Roatan Island, Honduras
TAF MHRO 151030Z 1512/1612 08016KT 9999 FEW024TCU TX32/1519Z TN26/1612Z
Issued Valid From Valid To
Aug-15 @ 10:30 UTC
(2 hours ago)
Aug-15 @ 12:00 UTC
(42 minutes ago)
Aug-16 @ 12:00 UTC
(in 23 hours)
Aug-15 @ 12:00 to Aug-16 @ 12:00
TAF MHRO 151030Z 1512/1612 08016KT 9999 FEW024TCU TX32/1519Z TN26/1612Z
Wind Visibility Clouds
80° at 16 knots 10,000+ meters
  • Few at 2,400' AGL
TAF MHRO 151030Z 1512/1612 08016KT 9999 FEW024TCU TX32/1519Z TN26/1612Z
Issued Aug-15 @ 10:30 UTC
(2 hours ago)
Valid From Aug-15 @ 12:00 UTC
(42 minutes ago)
Valid To Aug-16 @ 12:00 UTC
(in 23 hours)
Aug-15 @ 12:00 - Aug-16 @ 12:00
Wind Visibility
80° at 16 knots 10,000+ meters
Clouds
  • Few at 2,400' AGL